Time;durP1;ratioP1;P1;durP2;ratioP2;P2;SDS_P1;SDS_P2;PMS_P1;PMS_P2;Temp;Humidity;BMP_temperature;BMP_pressure;BME280_temperature;BME280_humidity;BME280_pressure;Samples;Min_cycle;Max_cycle;Signal;HPM_P1;HPM_P2
2022/01/21 00:00:56;;;;;;;13.90;2.53;;;2.10;99.90;;;;;;4991623;28;20432;-80
2022/01/21 00:03:22;;;;;;;15.52;2.70;;;2.10;99.90;;;;;;4990436;28;20128;-80
2022/01/21 00:05:48;;;;;;;18.20;3.38;;;2.30;99.90;;;;;;5019139;28;20133;-80
2022/01/21 00:08:14;;;;;;;17.27;2.85;;;2.20;99.90;;;;;;4998686;28;20393;-80
2022/01/21 00:10:40;;;;;;;19.45;3.30;;;2.30;99.90;;;;;;4983021;28;20064;-80
2022/01/21 00:13:16;;;;;;;16.58;2.72;;;2.40;99.90;;;;;;4997193;28;20064;-80
2022/01/21 00:15:42;;;;;;;16.65;2.83;;;2.50;99.90;;;;;;5004212;28;20080;-80
2022/01/21 00:18:09;;;;;;;15.32;3.15;;;2.70;99.90;;;;;;5003496;28;20573;-80
2022/01/21 00:31:31;;;;;;;14.85;3.03;;;3.00;99.90;;;;;;5003923;28;20120;-80
2022/01/21 00:33:57;;;;;;;15.77;2.42;;;3.00;99.90;;;;;;5002950;28;20499;-80
2022/01/21 00:36:23;;;;;;;12.77;2.08;;;3.00;99.90;;;;;;4978880;28;20041;-80
2022/01/21 00:38:48;;;;;;;19.83;2.63;;;2.90;99.90;;;;;;4999053;28;20029;-80
2022/01/21 00:41:19;;;;;;;11.85;2.28;;;2.90;99.90;;;;;;4996190;28;20049;-80
2022/01/21 00:43:45;;;;;;;19.50;2.70;;;2.90;99.90;;;;;;5016393;28;20080;-80
2022/01/21 00:46:12;;;;;;;14.60;2.22;;;2.80;99.90;;;;;;5025602;28;20102;-80
2022/01/21 00:48:38;;;;;;;9.88;2.33;;;2.70;99.90;;;;;;5038811;28;20481;-80
2022/01/21 00:51:04;;;;;;;11.35;1.98;;;2.80;99.90;;;;;;5021190;28;20052;-80
2022/01/21 00:53:29;;;;;;;12.38;2.63;;;2.80;99.90;;;;;;5032771;28;20473;-80
2022/01/21 00:55:55;;;;;;;15.60;2.17;;;2.80;99.90;;;;;;5033670;28;20041;-80
2022/01/21 00:58:21;;;;;;;14.80;2.28;;;2.80;99.90;;;;;;5021152;28;20456;-80
2022/01/21 01:00:46;;;;;;;9.20;2.47;;;2.80;99.90;;;;;;5019977;28;20033;-80
2022/01/21 01:03:14;;;;;;;9.73;2.05;;;2.60;99.90;;;;;;5036899;28;20041;-80
2022/01/21 01:05:40;;;;;;;12.43;2.50;;;2.50;99.90;;;;;;5026153;28;20049;-80
2022/01/21 01:08:06;;;;;;;9.02;2.08;;;2.40;99.90;;;;;;5005056;28;21430;-80
2022/01/21 01:21:19;;;;;;;12.15;2.65;;;2.70;99.90;;;;;;5038775;28;20481;-80
2022/01/21 01:29:30;;;;;;;14.82;2.20;;;2.70;99.90;;;;;;5029715;28;20053;-80
2022/01/21 01:31:55;;;;;;;15.52;2.33;;;2.70;99.90;;;;;;5000976;28;20114;-80
2022/01/21 01:34:21;;;;;;;9.65;1.75;;;2.70;99.90;;;;;;5004832;28;20044;-80
2022/01/21 01:36:47;;;;;;;12.43;2.20;;;2.70;99.90;;;;;;5004281;28;20453;-80
2022/01/21 01:39:18;;;;;;;11.18;1.77;;;2.70;99.90;;;;;;5035944;28;20042;-80
2022/01/21 01:49:39;;;;;;;;;;;2.70;99.90;;;;;;5019350;28;20497;-80
2022/01/21 01:52:09;;;;;;;13.13;2.97;;;2.70;99.90;;;;;;5011795;28;19917;-80
2022/01/21 01:54:38;;;;;;;17.65;1.80;;;2.70;99.90;;;;;;5034283;28;20068;-80
2022/01/21 01:57:04;;;;;;;12.57;1.90;;;2.70;99.90;;;;;;4998105;28;20060;-80
2022/01/21 01:59:30;;;;;;;13.77;2.03;;;2.70;99.90;;;;;;5016868;28;20095;-80
2022/01/21 02:02:06;;;;;;;10.52;1.92;;;2.60;99.90;;;;;;5018859;28;20382;-80
2022/01/21 02:04:32;;;;;;;9.18;1.90;;;2.60;99.90;;;;;;5003724;28;20135;-79
2022/01/21 02:06:58;;;;;;;11.80;2.00;;;2.70;99.90;;;;;;5021545;28;20137;-80
2022/01/21 02:09:24;;;;;;;7.13;1.90;;;2.60;99.90;;;;;;5020342;28;20111;-80
2022/01/21 02:11:51;;;;;;;9.00;2.03;;;2.60;99.90;;;;;;5021910;28;20104;-80
2022/01/21 02:14:22;;;;;;;6.95;1.63;;;2.70;99.90;;;;;;5017227;28;20660;-80
2022/01/21 02:22:08;;;;;;;;;;;2.80;99.90;;;;;;5020519;28;20087;-80
2022/01/21 02:24:47;;;;;;;7.43;0.98;;;2.80;99.90;;;;;;5003742;28;19921;-80
2022/01/21 02:27:13;;;;;;;9.35;1.48;;;2.70;99.90;;;;;;5005428;28;20338;-80
2022/01/21 02:29:52;;;;;;;2.95;0.98;;;2.80;99.90;;;;;;5022344;28;20152;-80
2022/01/21 02:32:19;;;;;;;5.10;1.17;;;2.70;99.90;;;;;;5037215;28;20493;-80
2022/01/21 02:34:45;;;;;;;5.20;1.38;;;2.80;99.90;;;;;;4996940;28;20267;-80
2022/01/21 02:37:14;;;;;;;4.60;1.05;;;2.70;99.90;;;;;;5006512;28;20132;-79
2022/01/21 02:39:40;;;;;;;5.22;1.42;;;2.70;99.90;;;;;;5023738;28;20045;-80
2022/01/21 02:42:06;;;;;;;6.68;1.30;;;2.70;99.90;;;;;;5004530;28;20051;-80
2022/01/21 02:44:32;;;;;;;5.90;1.10;;;2.60;99.90;;;;;;5020311;28;20347;-80
2022/01/21 02:47:01;;;;;;;4.65;0.80;;;2.60;99.90;;;;;;5035008;28;20037;-80
2022/01/21 02:49:27;;;;;;;8.40;1.42;;;2.60;99.90;;;;;;5036911;28;20200;-80
2022/01/21 02:51:55;;;;;;;5.53;1.02;;;2.70;99.90;;;;;;5018708;28;20326;-80
2022/01/21 02:54:21;;;;;;;9.68;1.52;;;2.60;99.90;;;;;;5017980;28;20247;-80
2022/01/21 02:56:47;;;;;;;9.52;1.38;;;2.70;99.90;;;;;;5004973;28;20070;-80
2022/01/21 02:59:14;;;;;;;4.65;1.13;;;2.60;99.90;;;;;;5016597;28;20244;-80
2022/01/21 03:01:41;;;;;;;7.20;1.58;;;2.70;99.90;;;;;;5036059;28;20041;-80
2022/01/21 03:04:10;;;;;;;3.53;1.05;;;2.80;99.90;;;;;;5021018;28;20079;-80
2022/01/21 03:06:37;;;;;;;5.97;1.27;;;2.80;99.90;;;;;;5022684;28;20041;-80
2022/01/21 03:09:07;;;;;;;7.68;1.27;;;2.90;99.90;;;;;;5021905;28;20131;-79
2022/01/21 03:11:34;;;;;;;4.90;1.20;;;2.90;99.90;;;;;;5026131;28;20079;-80
2022/01/21 03:14:00;;;;;;;5.93;1.02;;;2.90;99.90;;;;;;5039715;28;20091;-80
2022/01/21 03:16:26;;;;;;;6.43;1.17;;;2.80;99.90;;;;;;5025068;28;20065;-80
2022/01/21 03:18:55;;;;;;;4.78;0.88;;;2.90;99.90;;;;;;5004838;28;20097;-80
2022/01/21 03:21:21;;;;;;;3.83;0.80;;;2.80;99.90;;;;;;5018645;28;20084;-80
2022/01/21 03:23:52;;;;;;;4.50;0.90;;;2.90;99.90;;;;;;5020296;28;20079;-80
2022/01/21 03:26:20;;;;;;;5.03;0.80;;;3.00;99.90;;;;;;5009224;28;20060;-80
2022/01/21 03:28:49;;;;;;;4.28;1.08;;;2.90;99.90;;;;;;5021908;28;20457;-80
2022/01/21 03:31:15;;;;;;;5.38;0.95;;;2.80;99.90;;;;;;5009544;28;20040;-80
2022/01/21 03:33:41;;;;;;;3.60;0.80;;;2.80;99.90;;;;;;5023111;28;20113;-80
2022/01/21 03:36:08;;;;;;;3.35;0.80;;;2.80;99.90;;;;;;5005812;28;20037;-79
2022/01/21 03:38:34;;;;;;;3.78;0.80;;;2.70;99.90;;;;;;5038514;28;20048;-80
2022/01/21 03:41:03;;;;;;;4.57;1.02;;;2.70;99.90;;;;;;5006744;28;20057;-80
2022/01/21 03:43:28;;;;;;;4.88;0.88;;;2.80;99.90;;;;;;5008781;28;20149;-80
2022/01/21 03:45:54;;;;;;;3.08;0.75;;;2.70;99.90;;;;;;5002243;28;20454;-79
2022/01/21 03:48:20;;;;;;;3.38;0.90;;;2.70;99.90;;;;;;5006102;28;20041;-80
2022/01/21 03:50:47;;;;;;;6.05;0.88;;;2.70;99.90;;;;;;4996483;28;20034;-80
2022/01/21 03:53:13;;;;;;;5.38;1.13;;;2.60;99.90;;;;;;5003950;28;20445;-80
2022/01/21 03:55:39;;;;;;;4.13;0.70;;;2.60;99.90;;;;;;4989232;28;20106;-80
2022/01/21 03:58:06;;;;;;;3.08;0.73;;;2.60;99.90;;;;;;5016560;28;20087;-80
2022/01/21 04:00:36;;;;;;;5.80;1.15;;;2.60;99.90;;;;;;5004627;28;20754;-80
2022/01/21 04:03:03;;;;;;;5.35;0.93;;;2.50;99.90;;;;;;4988421;28;20037;-80
2022/01/21 04:05:29;;;;;;;5.68;0.70;;;2.50;99.90;;;;;;5007423;28;20033;-79
2022/01/21 04:07:56;;;;;;;7.07;1.23;;;2.50;99.90;;;;;;5023183;28;20053;-80
2022/01/21 04:10:22;;;;;;;7.75;1.40;;;2.50;99.90;;;;;;5004625;28;20042;-80
2022/01/21 04:12:48;;;;;;;7.93;1.30;;;2.50;99.90;;;;;;4988544;28;20120;-80
2022/01/21 04:15:14;;;;;;;9.35;1.60;;;2.40;99.90;;;;;;5001612;28;20416;-80
2022/01/21 04:17:40;;;;;;;8.88;1.38;;;2.40;99.90;;;;;;5002266;28;20029;-80
2022/01/21 04:20:07;;;;;;;9.90;1.67;;;2.40;99.90;;;;;;5002963;28;20052;-80
2022/01/21 04:22:34;;;;;;;7.80;1.25;;;2.30;99.90;;;;;;5004021;28;20060;-80
2022/01/21 04:25:00;;;;;;;5.43;1.25;;;2.10;99.90;;;;;;5006801;28;20033;-80
2022/01/21 04:27:27;;;;;;;9.98;1.30;;;2.00;99.90;;;;;;5003434;28;20049;-80
2022/01/21 04:29:52;;;;;;;5.82;1.38;;;2.00;99.90;;;;;;5003370;28;20071;-80
2022/01/21 04:32:18;;;;;;;6.03;1.50;;;2.10;99.90;;;;;;5017954;28;20045;-80
2022/01/21 04:34:44;;;;;;;6.70;1.70;;;2.00;99.90;;;;;;4986804;28;20044;-80
2022/01/21 04:37:12;;;;;;;10.55;1.65;;;2.00;99.90;;;;;;4982123;28;20120;-80
2022/01/21 04:39:46;;;;;;;8.15;1.52;;;2.00;99.90;;;;;;4997858;28;20049;-79
2022/01/21 04:47:33;;;;;;;6.70;1.50;;;2.10;99.90;;;;;;5020475;28;20048;-80
2022/01/21 04:49:59;;;;;;;7.07;1.73;;;2.10;99.90;;;;;;5007203;28;20096;-80
2022/01/21 04:52:25;;;;;;;7.53;1.90;;;2.10;99.90;;;;;;5019525;28;20072;-80
2022/01/21 04:54:53;;;;;;;10.32;2.03;;;2.10;99.90;;;;;;5003295;28;20424;-80
2022/01/21 04:57:19;;;;;;;13.82;1.88;;;2.00;99.90;;;;;;5019974;28;20075;-80
2022/01/21 04:59:46;;;;;;;10.63;2.13;;;2.00;99.90;;;;;;5016437;28;20052;-80
2022/01/21 05:02:11;;;;;;;8.00;1.90;;;2.00;99.90;;;;;;5006018;28;20037;-80
2022/01/21 05:04:37;;;;;;;10.80;1.75;;;1.90;99.90;;;;;;5024300;28;20044;-80
2022/01/21 05:07:06;;;;;;;11.20;2.30;;;2.00;99.90;;;;;;5001743;28;20041;-80
2022/01/21 05:09:34;;;;;;;11.27;1.60;;;2.00;99.90;;;;;;5018567;28;20045;-80
2022/01/21 05:12:07;;;;;;;11.98;2.03;;;2.00;99.90;;;;;;5018810;28;20105;-80
2022/01/21 05:15:14;;;;;;;11.07;1.90;;;1.90;99.90;;;;;;5022016;28;20056;-80
2022/01/21 05:17:26;;;;;;;5.90;1.70;;;2.00;99.90;;;;;;5033825;28;20057;-79
2022/01/21 05:19:52;;;;;;;11.88;1.85;;;2.10;99.90;;;;;;5009568;28;20051;-80
2022/01/21 05:22:18;;;;;;;5.45;1.63;;;2.10;99.90;;;;;;5001042;28;20278;-80
2022/01/21 05:24:45;;;;;;;9.85;1.58;;;2.10;99.90;;;;;;5022677;28;20060;-80
2022/01/21 05:27:12;;;;;;;8.13;1.70;;;2.20;99.90;;;;;;5036643;28;20044;-80
2022/01/21 05:29:40;;;;;;;5.97;1.23;;;2.40;99.90;;;;;;5023402;28;20049;-80
2022/01/21 05:32:07;;;;;;;10.25;1.65;;;2.50;99.90;;;;;;5003086;28;20053;-79
2022/01/21 05:34:33;;;;;;;8.30;1.30;;;2.50;99.90;;;;;;4998430;28;20033;-79
2022/01/21 05:36:59;;;;;;;6.22;1.40;;;2.60;99.90;;;;;;5022024;28;20469;-80
2022/01/21 05:39:25;;;;;;;9.20;1.30;;;2.60;99.90;;;;;;5020253;28;20124;-80
2022/01/21 05:41:52;;;;;;;9.70;1.42;;;2.50;99.90;;;;;;5017505;28;20055;-80
2022/01/21 05:47:02;;;;;;;7.45;1.40;;;2.50;99.90;;;;;;4996560;28;20465;-80
2022/01/21 05:49:30;;;;;;;7.63;1.50;;;2.60;99.90;;;;;;4972191;28;20050;-80
2022/01/21 05:52:04;;;;;;;8.15;1.50;;;2.60;99.90;;;;;;4999304;28;20564;-79
2022/01/21 05:54:30;;;;;;;6.35;1.67;;;2.60;99.90;;;;;;5000244;28;20041;-80
2022/01/21 05:56:57;;;;;;;8.15;1.67;;;2.60;99.90;;;;;;4993682;28;20038;-80
2022/01/21 05:59:22;;;;;;;7.13;1.25;;;2.60;99.90;;;;;;4985867;28;20120;-80
2022/01/21 06:01:48;;;;;;;9.05;1.35;;;2.70;99.90;;;;;;4982748;28;20184;-79
2022/01/21 06:04:14;;;;;;;6.80;1.30;;;2.60;99.90;;;;;;4998111;28;20048;-80
2022/01/21 06:06:40;;;;;;;11.48;1.42;;;2.70;99.90;;;;;;5003516;28;20297;-80
2022/01/21 06:09:07;;;;;;;6.53;2.13;;;2.70;99.90;;;;;;5000986;28;20095;-80
2022/01/21 06:11:33;;;;;;;10.25;1.63;;;2.80;99.90;;;;;;5002245;28;20454;-79
2022/01/21 06:14:00;;;;;;;7.75;1.40;;;2.80;99.90;;;;;;4986066;28;20499;-80
2022/01/21 06:16:26;;;;;;;10.48;1.77;;;2.90;99.90;;;;;;5005039;28;20147;-80
2022/01/21 06:18:52;;;;;;;11.38;1.55;;;2.90;99.90;;;;;;4999291;28;20071;-79
2022/01/21 06:21:18;;;;;;;11.07;1.67;;;3.00;99.90;;;;;;5004104;28;20095;-80
2022/01/21 06:23:44;;;;;;;12.52;1.67;;;3.10;99.90;;;;;;4994428;28;20447;-80
2022/01/21 06:26:10;;;;;;;5.38;1.40;;;3.10;99.90;;;;;;4982643;28;20037;-80
2022/01/21 06:28:35;;;;;;;14.27;1.80;;;3.00;99.90;;;;;;5002421;28;20071;-80
2022/01/21 06:31:01;;;;;;;21.10;1.90;;;2.90;99.90;;;;;;5000501;28;20357;-80
2022/01/21 06:33:27;;;;;;;7.82;2.08;;;3.00;99.90;;;;;;4980751;28;20073;-80
2022/01/21 06:35:53;;;;;;;7.55;1.45;;;3.00;99.90;;;;;;4994338;28;20081;-80
2022/01/21 06:38:24;;;;;;;11.82;1.60;;;3.10;99.90;;;;;;5000662;28;20479;-80
2022/01/21 06:40:51;;;;;;;11.13;1.65;;;3.10;99.90;;;;;;5001774;28;20220;-80
2022/01/21 06:43:17;;;;;;;8.80;1.80;;;3.00;99.90;;;;;;5026201;28;20057;-80
2022/01/21 06:45:43;;;;;;;10.77;1.67;;;3.00;99.90;;;;;;5026710;28;20076;-80
2022/01/21 06:48:09;;;;;;;11.68;1.67;;;3.00;99.90;;;;;;5023171;28;20143;-80
2022/01/21 06:50:38;;;;;;;9.65;1.65;;;3.00;99.90;;;;;;5027599;28;20049;-80
2022/01/21 06:53:04;;;;;;;13.15;1.80;;;3.00;99.90;;;;;;5025163;28;20048;-80
2022/01/21 06:55:30;;;;;;;10.85;1.65;;;2.90;99.90;;;;;;5026259;28;20505;-80
2022/01/21 06:57:56;;;;;;;10.90;2.08;;;2.80;99.90;;;;;;5008192;28;20118;-79
2022/01/21 07:00:22;;;;;;;17.00;1.80;;;2.80;99.90;;;;;;5042667;28;20455;-80
2022/01/21 07:02:49;;;;;;;11.55;1.60;;;2.70;99.90;;;;;;5022982;28;20048;-80
2022/01/21 07:05:16;;;;;;;8.57;1.65;;;2.70;99.90;;;;;;5006827;28;20053;-80
2022/01/21 07:07:42;;;;;;;14.90;1.95;;;2.60;99.90;;;;;;5009927;28;20036;-80
2022/01/21 07:10:11;;;;;;;7.25;1.48;;;2.50;99.90;;;;;;4997096;28;20060;-80
2022/01/21 07:12:37;;;;;;;7.25;1.85;;;2.40;99.90;;;;;;5040884;28;20045;-80
2022/01/21 07:15:05;;;;;;;8.18;1.80;;;2.40;99.90;;;;;;5019603;28;20361;-80
2022/01/21 07:17:30;;;;;;;12.20;1.80;;;2.30;99.90;;;;;;5018376;28;20041;-80
2022/01/21 07:19:56;;;;;;;7.30;1.50;;;2.30;99.90;;;;;;5018474;28;20049;-80
2022/01/21 07:22:22;;;;;;;10.88;1.92;;;2.30;99.90;;;;;;5023241;28;20203;-80
2022/01/21 07:24:47;;;;;;;11.57;1.92;;;2.30;99.90;;;;;;5021663;28;20078;-80
2022/01/21 07:27:13;;;;;;;15.05;2.53;;;2.30;99.90;;;;;;5027035;28;20127;-80
2022/01/21 07:29:39;;;;;;;9.82;2.00;;;2.30;99.90;;;;;;5022114;28;20128;-80
2022/01/21 07:32:05;;;;;;;11.40;1.75;;;2.40;99.90;;;;;;5023840;28;20021;-80
2022/01/21 07:34:31;;;;;;;12.75;1.95;;;2.50;99.90;;;;;;5023197;28;20072;-80
2022/01/21 07:36:57;;;;;;;10.80;1.90;;;2.50;99.90;;;;;;5007503;28;20203;-79
2022/01/21 07:39:23;;;;;;;18.05;2.60;;;2.60;99.90;;;;;;5005346;28;20153;-80
2022/01/21 07:41:52;;;;;;;17.15;2.65;;;2.70;99.90;;;;;;4990851;28;20114;-80
2022/01/21 07:44:18;;;;;;;12.73;2.00;;;2.80;99.90;;;;;;5017498;28;20084;-80
2022/01/21 07:46:45;;;;;;;10.93;2.35;;;2.80;99.90;;;;;;5039606;28;20049;-80
2022/01/21 07:49:11;;;;;;;9.65;2.35;;;2.80;99.90;;;;;;5010370;28;20531;-80
2022/01/21 07:51:37;;;;;;;13.07;1.92;;;2.80;99.90;;;;;;5016556;28;20041;-80
2022/01/21 07:54:04;;;;;;;9.38;2.10;;;2.70;99.90;;;;;;5010785;28;20044;-80
2022/01/21 07:56:33;;;;;;;17.15;2.60;;;2.70;99.90;;;;;;5006055;28;20044;-80
2022/01/21 07:59:00;;;;;;;10.43;2.20;;;2.70;99.90;;;;;;5003170;28;20045;-80
2022/01/21 08:01:26;;;;;;;10.13;2.13;;;2.80;99.90;;;;;;5027093;28;20099;-80
2022/01/21 08:03:52;;;;;;;9.77;2.20;;;2.80;99.90;;;;;;5018067;28;20469;-80
2022/01/21 08:06:18;;;;;;;8.88;1.60;;;2.80;99.90;;;;;;5025542;28;20053;-80
2022/01/21 08:08:43;;;;;;;13.50;1.90;;;2.90;99.90;;;;;;5036013;28;20403;-80
2022/01/21 08:11:09;;;;;;;15.60;2.20;;;2.90;99.90;;;;;;5021496;28;20048;-80
2022/01/21 08:13:35;;;;;;;11.63;2.00;;;2.90;99.90;;;;;;5018864;28;20133;-80
2022/01/21 08:16:01;;;;;;;9.95;2.00;;;2.80;99.90;;;;;;5026339;28;20055;-80
2022/01/21 08:18:29;;;;;;;7.25;1.80;;;2.80;99.90;;;;;;5006483;28;20048;-80
2022/01/21 08:20:55;;;;;;;8.48;1.88;;;2.80;99.90;;;;;;5039551;28;20564;-80
2022/01/21 08:23:22;;;;;;;10.70;1.95;;;2.70;99.90;;;;;;5021645;28;20118;-80
2022/01/21 08:25:48;;;;;;;10.80;2.40;;;2.60;99.90;;;;;;5036603;28;20135;-80
2022/01/21 08:28:13;;;;;;;11.18;2.55;;;2.70;99.90;;;;;;5014995;28;20486;-80
2022/01/21 08:30:39;;;;;;;12.02;2.15;;;2.60;99.90;;;;;;5019429;28;20045;-80
2022/01/21 08:33:05;;;;;;;12.55;2.15;;;2.50;99.90;;;;;;5013676;28;20036;-80
2022/01/21 08:35:32;;;;;;;11.60;2.30;;;2.50;99.90;;;;;;5005928;28;20043;-80
2022/01/21 08:37:58;;;;;;;10.75;2.33;;;2.50;99.90;;;;;;5019023;28;20128;-80
2022/01/21 08:40:25;;;;;;;11.32;2.00;;;2.60;99.90;;;;;;5020311;28;20091;-80
2022/01/21 08:42:51;;;;;;;11.88;2.47;;;2.70;99.90;;;;;;5021613;28;20376;-80
2022/01/21 08:45:18;;;;;;;14.82;2.72;;;2.80;99.90;;;;;;5005908;28;20047;-80
2022/01/21 08:47:44;;;;;;;11.38;2.13;;;2.80;99.90;;;;;;5024896;28;20051;-80
2022/01/21 08:50:16;;;;;;;15.63;2.00;;;2.90;99.90;;;;;;5022033;28;20267;-80
2022/01/21 08:52:42;;;;;;;11.98;2.67;;;3.00;99.90;;;;;;5006757;28;20078;-80
2022/01/21 08:55:14;;;;;;;9.38;1.75;;;3.10;99.90;;;;;;5001158;28;20042;-80
2022/01/21 08:57:43;;;;;;;11.63;2.50;;;3.20;99.90;;;;;;5021876;28;20080;-80
2022/01/21 09:00:21;;;;;;;15.93;2.40;;;3.20;99.90;;;;;;5020413;28;20049;-80
2022/01/21 09:02:48;;;;;;;14.60;2.30;;;3.30;99.90;;;;;;5020233;28;20040;-80
2022/01/21 09:05:14;;;;;;;15.07;2.47;;;3.30;99.90;;;;;;5024427;28;20048;-80
2022/01/21 09:07:40;;;;;;;13.25;2.40;;;3.40;99.90;;;;;;5020740;28;20044;-80
2022/01/21 09:10:08;;;;;;;13.75;3.60;;;3.40;99.90;;;;;;5018398;28;20036;-80
2022/01/21 09:12:33;;;;;;;14.05;2.50;;;3.50;99.90;;;;;;5019562;28;20059;-80
2022/01/21 09:14:59;;;;;;;11.77;3.15;;;3.50;99.90;;;;;;5004804;28;20122;-80
2022/01/21 09:17:25;;;;;;;18.92;3.00;;;3.60;99.90;;;;;;5035335;28;20120;-80
2022/01/21 09:19:51;;;;;;;11.95;2.63;;;3.60;99.90;;;;;;5006933;28;20040;-80
2022/01/21 09:22:17;;;;;;;12.60;2.13;;;3.60;99.90;;;;;;5006337;28;20049;-80
2022/01/21 09:24:42;;;;;;;13.00;2.15;;;3.60;99.90;;;;;;5019252;28;20459;-80
2022/01/21 09:27:08;;;;;;;11.80;2.67;;;3.60;99.90;;;;;;5005163;28;20021;-80
2022/01/21 09:29:35;;;;;;;12.93;2.70;;;3.60;99.90;;;;;;5004733;28;20099;-79
2022/01/21 09:32:03;;;;;;;12.82;2.40;;;3.70;99.90;;;;;;5038663;28;20120;-80
2022/01/21 09:34:29;;;;;;;16.83;2.63;;;3.70;99.90;;;;;;5019247;28;20112;-80
2022/01/21 09:36:57;;;;;;;11.75;2.72;;;3.70;99.90;;;;;;5022347;28;20047;-80
2022/01/21 09:39:24;;;;;;;12.20;2.60;;;3.70;99.90;;;;;;5017898;28;20644;-80
2022/01/21 09:41:51;;;;;;;8.52;2.42;;;3.80;99.90;;;;;;5040354;28;20098;-79
2022/01/21 09:44:20;;;;;;;9.95;2.40;;;3.80;99.90;;;;;;5036086;28;20196;-79
2022/01/21 09:46:49;;;;;;;17.50;2.80;;;3.90;99.90;;;;;;5020589;28;20042;-80
2022/01/21 09:49:27;;;;;;;18.65;3.20;;;3.90;99.90;;;;;;5015427;28;20080;-79
2022/01/21 09:51:55;;;;;;;17.75;2.90;;;4.00;99.90;;;;;;5020081;28;20045;-80
2022/01/21 09:54:25;;;;;;;19.25;3.25;;;4.10;99.90;;;;;;5000458;28;20068;-80
2022/01/21 09:56:56;;;;;;;17.40;3.65;;;4.20;99.90;;;;;;5020932;28;20067;-80
2022/01/21 09:59:24;;;;;;;16.23;3.65;;;4.20;99.90;;;;;;5020177;28;20484;-80
2022/01/21 10:02:09;;;;;;;14.45;3.22;;;4.30;99.90;;;;;;5015776;28;20041;-80
2022/01/21 10:04:38;;;;;;;11.90;3.20;;;4.30;99.90;;;;;;5021726;28;20090;-80
2022/01/21 10:07:05;;;;;;;12.55;2.78;;;4.40;99.90;;;;;;5024606;28;20068;-80
2022/01/21 10:09:31;;;;;;;11.13;2.63;;;4.60;99.90;;;;;;5036747;28;20127;-80
2022/01/21 10:11:58;;;;;;;16.92;2.92;;;4.70;99.90;;;;;;5033069;28;20040;-80
2022/01/21 10:14:29;;;;;;;12.43;2.20;;;4.80;99.90;;;;;;5014959;28;20191;-80
2022/01/21 10:16:56;;;;;;;14.48;2.10;;;4.90;99.90;;;;;;5013267;28;20033;-80
2022/01/21 10:19:31;;;;;;;9.82;1.85;;;4.90;99.90;;;;;;4995306;28;20271;-80
2022/01/21 10:22:03;;;;;;;13.45;2.25;;;4.90;99.90;;;;;;5000602;28;20036;-80
2022/01/21 10:24:31;;;;;;;9.65;2.20;;;4.90;99.90;;;;;;5017015;28;20035;-80
2022/01/21 10:26:58;;;;;;;11.95;2.25;;;5.00;99.90;;;;;;5019443;28;20045;-80
2022/01/21 10:29:33;;;;;;;12.10;2.47;;;5.20;99.90;;;;;;5020001;28;20056;-80
2022/01/21 10:32:01;;;;;;;12.68;2.40;;;5.20;99.90;;;;;;5005198;28;20126;-80
2022/01/21 10:34:29;;;;;;;15.82;2.63;;;5.40;99.90;;;;;;5016957;28;20072;-80
2022/01/21 10:37:05;;;;;;;15.32;2.65;;;5.40;99.90;;;;;;5020484;28;20069;-80
2022/01/21 10:39:34;;;;;;;13.48;3.60;;;5.50;99.90;;;;;;5011183;28;20048;-80
2022/01/21 10:42:01;;;;;;;11.18;2.90;;;5.60;99.90;;;;;;5022307;28;20348;-80
2022/01/21 10:44:30;;;;;;;15.10;2.85;;;5.60;99.90;;;;;;5019713;28;20456;-80
2022/01/21 10:47:05;;;;;;;16.50;2.92;;;5.80;99.90;;;;;;5020017;28;20310;-80
2022/01/21 10:49:31;;;;;;;9.82;2.60;;;5.80;99.90;;;;;;5017922;28;20100;-80
2022/01/21 10:51:57;;;;;;;11.00;2.60;;;5.80;99.90;;;;;;5018856;28;20033;-79
2022/01/21 10:54:29;;;;;;;12.93;2.60;;;5.80;99.90;;;;;;5017321;28;20069;-80
2022/01/21 10:57:16;;;;;;;13.55;2.80;;;5.70;99.90;;;;;;5015457;28;20311;-80
2022/01/21 10:59:53;;;;;;;14.25;2.95;;;5.80;99.90;;;;;;5018903;28;20055;-80
2022/01/21 11:02:40;;;;;;;14.43;3.10;;;5.90;99.90;;;;;;5021088;28;20060;-80
2022/01/21 11:05:28;;;;;;;10.35;2.50;;;5.90;99.90;;;;;;5015529;28;20052;-80
2022/01/21 11:07:58;;;;;;;17.63;2.67;;;5.90;99.90;;;;;;5019109;28;20048;-80
2022/01/21 11:10:34;;;;;;;13.15;3.13;;;6.00;99.90;;;;;;5017563;28;20069;-80
2022/01/21 11:13:23;;;;;;;14.80;2.38;;;6.20;99.90;;;;;;5010995;28;20590;-80
2022/01/21 11:16:26;;;;;;;13.18;2.30;;;6.30;99.90;;;;;;5022946;28;20111;-79
2022/01/21 11:19:06;;;;;;;10.43;2.70;;;6.30;99.90;;;;;;5011939;28;20128;-80
2022/01/21 11:21:48;;;;;;;18.38;2.90;;;6.20;99.90;;;;;;5021389;28;20068;-80
2022/01/21 11:24:16;;;;;;;16.88;3.20;;;6.30;99.90;;;;;;5022187;28;20041;-80
2022/01/21 11:26:42;;;;;;;13.18;2.60;;;6.30;99.90;;;;;;5022993;28;20072;-80
2022/01/21 11:29:10;;;;;;;13.05;2.67;;;6.40;99.90;;;;;;5023858;28;20076;-79
2022/01/21 11:31:36;;;;;;;9.75;2.40;;;6.30;99.90;;;;;;5024896;28;20441;-80
2022/01/21 11:34:02;;;;;;;13.57;3.38;;;6.30;99.90;;;;;;5024471;28;20033;-80
2022/01/21 11:36:28;;;;;;;13.77;2.88;;;6.40;99.90;;;;;;5028509;28;20044;-80
2022/01/21 11:38:55;;;;;;;17.23;3.25;;;6.50;99.90;;;;;;5008947;28;20110;-80
2022/01/21 11:41:26;;;;;;;13.45;2.78;;;6.50;99.90;;;;;;5007133;28;20196;-80
2022/01/21 11:43:56;;;;;;;16.30;2.80;;;6.70;99.90;;;;;;5005712;28;20068;-80
2022/01/21 11:49:01;;;;;;;8.88;2.03;;;6.90;99.90;;;;;;5019677;28;20159;-80
2022/01/21 11:51:30;;;;;;;10.57;3.08;;;7.10;99.90;;;;;;5025485;28;20044;-80
2022/01/21 11:53:59;;;;;;;12.43;2.67;;;7.10;99.90;;;;;;5024762;28;20044;-80
2022/01/21 11:56:29;;;;;;;8.68;1.70;;;7.10;99.90;;;;;;5010610;28;20399;-80
2022/01/21 11:59:40;;;;;;;10.88;1.80;;;7.20;99.90;;;;;;5022186;28;20117;-80
2022/01/21 12:02:14;;;;;;;14.57;2.33;;;7.20;99.90;;;;;;5038350;28;20232;-80
2022/01/21 12:04:40;;;;;;;14.15;2.20;;;7.20;99.90;;;;;;5024479;28;20099;-80
2022/01/21 12:07:26;;;;;;;15.25;2.67;;;7.30;99.90;;;;;;4998559;28;20049;-80
2022/01/21 12:09:56;;;;;;;8.27;1.50;;;7.30;99.90;;;;;;5022229;28;20075;-80
2022/01/21 12:12:23;;;;;;;9.23;2.55;;;7.30;99.90;;;;;;5023623;28;20079;-80
2022/01/21 12:14:56;;;;;;;9.85;1.70;;;7.30;99.90;;;;;;5015664;28;20049;-80
2022/01/21 12:17:46;;;;;;;13.60;2.22;;;7.20;99.90;;;;;;5037498;28;20041;-80
2022/01/21 12:20:11;;;;;;;9.98;2.35;;;7.20;99.90;;;;;;5008168;28;20037;-80
2022/01/21 12:22:38;;;;;;;12.23;1.90;;;7.20;99.90;;;;;;5006724;28;20048;-80
2022/01/21 12:25:07;;;;;;;11.15;2.35;;;7.20;99.90;;;;;;5021609;28;20439;-80
2022/01/21 12:27:33;;;;;;;9.95;2.15;;;7.20;99.90;;;;;;5017129;28;20045;-80
2022/01/21 12:30:17;;;;;;;10.15;1.73;;;7.20;99.90;;;;;;5022914;28;20060;-80
2022/01/21 12:32:50;;;;;;;10.60;2.00;;;7.20;99.90;;;;;;5023406;28;20044;-80
2022/01/21 12:35:18;;;;;;;12.82;1.90;;;7.30;99.90;;;;;;5042229;28;20408;-80
2022/01/21 12:40:53;;;;;;;13.40;2.25;;;7.30;99.90;;;;;;4978500;28;20057;-80
2022/01/21 12:43:38;;;;;;;11.25;2.35;;;7.30;99.90;;;;;;5012125;28;20213;-80
2022/01/21 12:46:09;;;;;;;8.35;2.05;;;7.30;99.90;;;;;;5021889;28;20488;-80
2022/01/21 12:48:36;;;;;;;12.43;1.90;;;7.30;99.90;;;;;;5020568;28;20587;-80
2022/01/21 12:51:34;;;;;;;10.43;2.15;;;7.30;99.90;;;;;;5021882;28;20400;-80
2022/01/21 12:56:53;;;;;;;11.38;2.92;;;7.30;99.90;;;;;;5020423;28;20586;-80
2022/01/21 12:59:24;;;;;;;10.10;2.00;;;7.30;99.90;;;;;;5039465;28;20308;-80
2022/01/21 13:01:51;;;;;;;13.75;2.05;;;7.30;99.90;;;;;;5023547;28;20032;-80
2022/01/21 13:04:35;;;;;;;10.05;2.20;;;7.40;99.90;;;;;;5022071;28;20087;-80
2022/01/21 13:07:11;;;;;;;11.75;2.08;;;7.30;99.90;;;;;;5010054;28;20053;-80
2022/01/21 13:10:15;;;;;;;11.90;2.08;;;7.30;99.90;;;;;;5020776;28;20048;-80
2022/01/21 13:12:58;;;;;;;11.15;2.38;;;7.40;99.90;;;;;;5014389;28;20041;-80
2022/01/21 13:15:45;;;;;;;11.40;2.22;;;7.40;99.90;;;;;;5005730;28;20037;-80
2022/01/21 13:18:22;;;;;;;11.55;2.60;;;7.30;99.90;;;;;;5020342;28;20468;-80
2022/01/21 13:20:49;;;;;;;14.80;2.55;;;7.40;99.90;;;;;;5022452;28;20116;-81
2022/01/21 13:23:51;;;;;;;12.77;2.63;;;7.40;99.90;;;;;;5008576;28;20491;-80
2022/01/21 13:26:20;;;;;;;12.50;2.10;;;7.40;99.90;;;;;;5018723;28;20048;-80
2022/01/21 13:29:03;;;;;;;16.80;2.60;;;7.30;99.90;;;;;;5020547;28;20049;-80
2022/01/21 13:31:51;;;;;;;11.80;2.25;;;7.30;99.90;;;;;;5021461;28;20421;-80
2022/01/21 13:34:19;;;;;;;15.68;2.30;;;7.30;99.90;;;;;;5018382;28;20041;-80
2022/01/21 13:36:53;;;;;;;12.02;2.08;;;7.30;99.90;;;;;;5022278;28;20048;-80
2022/01/21 13:39:31;;;;;;;13.15;2.90;;;7.30;99.90;;;;;;5020277;28;20045;-80
2022/01/21 13:42:09;;;;;;;15.57;2.90;;;7.30;99.90;;;;;;5006647;28;20045;-80
2022/01/21 13:44:54;;;;;;;15.88;2.65;;;7.30;99.90;;;;;;4999356;28;20045;-80
2022/01/21 13:47:25;;;;;;;15.18;2.53;;;7.30;99.90;;;;;;5002160;28;20492;-80
2022/01/21 13:49:51;;;;;;;10.60;2.60;;;7.30;99.90;;;;;;4997710;28;20392;-80
2022/01/21 13:52:17;;;;;;;13.55;2.80;;;7.40;99.90;;;;;;5021078;28;20051;-80
2022/01/21 13:54:45;;;;;;;11.98;2.22;;;7.50;99.90;;;;;;4988824;28;20046;-80
2022/01/21 13:57:11;;;;;;;9.65;2.28;;;7.50;99.90;;;;;;4985087;28;20033;-80